sensor_id;sensor_type;location;lat;lon;timestamp;temperature;humidity
56436;DHT22;42335;44.872;20.658;2022-12-31T00:01:12;205.20;2252.80
56436;DHT22;42335;44.872;20.658;2022-12-31T00:03:39;205.30;2252.80
56436;DHT22;42335;44.872;20.658;2022-12-31T00:08:49;205.30;2252.80
56436;DHT22;42335;44.872;20.658;2022-12-31T00:11:15;205.20;2252.80
56436;DHT22;42335;44.872;20.658;2022-12-31T00:13:42;205.30;2252.80
56436;DHT22;42335;44.872;20.658;2022-12-31T00:16:17;205.30;2252.80
56436;DHT22;42335;44.872;20.658;2022-12-31T00:18:45;205.30;2252.80
56436;DHT22;42335;44.872;20.658;2022-12-31T00:21:11;205.30;2252.80
56436;DHT22;42335;44.872;20.658;2022-12-31T00:23:38;205.30;2252.80
56436;DHT22;42335;44.872;20.658;2022-12-31T00:26:14;205.30;2252.80
56436;DHT22;42335;44.872;20.658;2022-12-31T00:28:41;205.20;2252.80
56436;DHT22;42335;44.872;20.658;2022-12-31T00:31:16;205.20;2252.80
56436;DHT22;42335;44.872;20.658;2022-12-31T00:33:43;205.10;2252.80
56436;DHT22;42335;44.872;20.658;2022-12-31T00:36:16;205.10;2252.80
56436;DHT22;42335;44.872;20.658;2022-12-31T00:58:15;205.20;2252.80
56436;DHT22;42335;44.872;20.658;2022-12-31T01:00:41;204.90;2252.80
56436;DHT22;42335;44.872;20.658;2022-12-31T01:03:07;204.90;2252.80
56436;DHT22;42335;44.872;20.658;2022-12-31T01:07:59;204.90;2252.80
56436;DHT22;42335;44.872;20.658;2022-12-31T01:10:25;180.10;2252.80
56436;DHT22;42335;44.872;20.658;2022-12-31T01:13:09;180.10;2252.80
56436;DHT22;42335;44.872;20.658;2022-12-31T01:15:36;179.90;2252.80
56436;DHT22;42335;44.872;20.658;2022-12-31T01:18:06;179.90;2252.80
56436;DHT22;42335;44.872;20.658;2022-12-31T01:20:42;179.90;2252.80
56436;DHT22;42335;44.872;20.658;2022-12-31T01:23:09;179.90;2252.80
56436;DHT22;42335;44.872;20.658;2022-12-31T01:25:37;179.80;2252.80
56436;DHT22;42335;44.872;20.658;2022-12-31T01:28:04;179.80;2252.80
56436;DHT22;42335;44.872;20.658;2022-12-31T01:30:31;179.80;2252.80
56436;DHT22;42335;44.872;20.658;2022-12-31T01:32:57;180.00;2252.80
56436;DHT22;42335;44.872;20.658;2022-12-31T01:35:24;179.80;2252.80
56436;DHT22;42335;44.872;20.658;2022-12-31T01:37:50;180.00;2252.80
56436;DHT22;42335;44.872;20.658;2022-12-31T01:40:15;179.70;2252.80
56436;DHT22;42335;44.872;20.658;2022-12-31T01:42:41;179.90;2252.80
56436;DHT22;42335;44.872;20.658;2022-12-31T01:45:11;179.60;2252.80
56436;DHT22;42335;44.872;20.658;2022-12-31T01:47:47;179.60;2252.80
56436;DHT22;42335;44.872;20.658;2022-12-31T01:50:19;179.60;2252.80
56436;DHT22;42335;44.872;20.658;2022-12-31T01:52:53;179.50;2252.80
56436;DHT22;42335;44.872;20.658;2022-12-31T01:55:25;179.70;2252.80
56436;DHT22;42335;44.872;20.658;2022-12-31T01:57:57;179.60;2252.80
56436;DHT22;42335;44.872;20.658;2022-12-31T02:00:23;179.60;2252.80
56436;DHT22;42335;44.872;20.658;2022-12-31T02:02:50;179.50;2252.80
56436;DHT22;42335;44.872;20.658;2022-12-31T02:12:45;179.60;2252.80
56436;DHT22;42335;44.872;20.658;2022-12-31T02:15:11;179.60;2252.80
56436;DHT22;42335;44.872;20.658;2022-12-31T02:18:07;179.30;2252.80
56436;DHT22;42335;44.872;20.658;2022-12-31T02:24:02;179.30;2252.80
56436;DHT22;42335;44.872;20.658;2022-12-31T02:34:35;179.70;2252.80
56436;DHT22;42335;44.872;20.658;2022-12-31T02:37:05;179.50;2252.80
56436;DHT22;42335;44.872;20.658;2022-12-31T02:39:33;179.50;2252.80
56436;DHT22;42335;44.872;20.658;2022-12-31T02:42:00;179.40;2252.80
56436;DHT22;42335;44.872;20.658;2022-12-31T02:44:33;179.40;2252.80
56436;DHT22;42335;44.872;20.658;2022-12-31T02:58:48;179.50;2252.80
56436;DHT22;42335;44.872;20.658;2022-12-31T03:01:36;179.50;2252.80
56436;DHT22;42335;44.872;20.658;2022-12-31T03:04:23;179.50;2252.80
56436;DHT22;42335;44.872;20.658;2022-12-31T03:07:28;179.50;2252.80
56436;DHT22;42335;44.872;20.658;2022-12-31T03:09:53;179.50;2252.80
56436;DHT22;42335;44.872;20.658;2022-12-31T03:12:21;179.50;2252.80
56436;DHT22;42335;44.872;20.658;2022-12-31T03:15:07;179.50;2252.80
56436;DHT22;42335;44.872;20.658;2022-12-31T03:18:12;179.60;2252.80
56436;DHT22;42335;44.872;20.658;2022-12-31T03:20:47;179.70;2252.80
56436;DHT22;42335;44.872;20.658;2022-12-31T03:23:40;179.60;2252.80
56436;DHT22;42335;44.872;20.658;2022-12-31T03:26:09;179.60;2252.80
56436;DHT22;42335;44.872;20.658;2022-12-31T03:28:37;179.60;2252.80
56436;DHT22;42335;44.872;20.658;2022-12-31T03:31:03;179.60;2252.80
56436;DHT22;42335;44.872;20.658;2022-12-31T03:33:31;179.80;2252.80
56436;DHT22;42335;44.872;20.658;2022-12-31T03:35:57;179.80;2252.80
56436;DHT22;42335;44.872;20.658;2022-12-31T03:38:23;179.80;2252.80
56436;DHT22;42335;44.872;20.658;2022-12-31T03:40:51;180.00;2252.80
56436;DHT22;42335;44.872;20.658;2022-12-31T03:43:17;179.90;2252.80
56436;DHT22;42335;44.872;20.658;2022-12-31T03:45:47;179.90;2252.80
56436;DHT22;42335;44.872;20.658;2022-12-31T03:48:13;179.90;2252.80
56436;DHT22;42335;44.872;20.658;2022-12-31T03:50:39;179.90;2252.80
56436;DHT22;42335;44.872;20.658;2022-12-31T03:53:05;179.90;2252.80
56436;DHT22;42335;44.872;20.658;2022-12-31T03:55:30;179.80;2252.80
56436;DHT22;42335;44.872;20.658;2022-12-31T03:57:56;179.80;2252.80
56436;DHT22;42335;44.872;20.658;2022-12-31T04:00:22;179.80;2252.80
56436;DHT22;42335;44.872;20.658;2022-12-31T04:02:48;179.70;2252.80
56436;DHT22;42335;44.872;20.658;2022-12-31T04:05:16;179.70;2252.80
56436;DHT22;42335;44.872;20.658;2022-12-31T04:07:43;179.60;2252.80
56436;DHT22;42335;44.872;20.658;2022-12-31T04:10:11;179.60;2252.80
56436;DHT22;42335;44.872;20.658;2022-12-31T04:12:37;179.60;2252.80
56436;DHT22;42335;44.872;20.658;2022-12-31T04:15:04;179.60;2252.80
56436;DHT22;42335;44.872;20.658;2022-12-31T04:17:30;179.50;2252.80
56436;DHT22;42335;44.872;20.658;2022-12-31T04:19:56;179.50;2252.80
56436;DHT22;42335;44.872;20.658;2022-12-31T04:22:21;179.40;2252.80
56436;DHT22;42335;44.872;20.658;2022-12-31T04:24:47;179.40;2252.80
56436;DHT22;42335;44.872;20.658;2022-12-31T04:36:58;179.50;2252.80
56436;DHT22;42335;44.872;20.658;2022-12-31T04:39:24;179.30;2252.80
56436;DHT22;42335;44.872;20.658;2022-12-31T04:49:09;179.30;2252.80
56436;DHT22;42335;44.872;20.658;2022-12-31T04:51:36;154.40;2252.80
56436;DHT22;42335;44.872;20.658;2022-12-31T04:54:03;154.40;2252.80
56436;DHT22;42335;44.872;20.658;2022-12-31T04:56:29;154.30;2252.80
56436;DHT22;42335;44.872;20.658;2022-12-31T04:58:54;154.30;2252.80
56436;DHT22;42335;44.872;20.658;2022-12-31T05:01:21;154.30;2252.80
56436;DHT22;42335;44.872;20.658;2022-12-31T05:03:47;154.30;2252.80
56436;DHT22;42335;44.872;20.658;2022-12-31T05:06:22;154.40;2252.80
56436;DHT22;42335;44.872;20.658;2022-12-31T05:08:48;154.40;2252.80
56436;DHT22;42335;44.872;20.658;2022-12-31T05:11:15;154.30;2252.80
56436;DHT22;42335;44.872;20.658;2022-12-31T05:13:41;154.30;2252.80
56436;DHT22;42335;44.872;20.658;2022-12-31T05:16:07;154.40;2252.80
56436;DHT22;42335;44.872;20.658;2022-12-31T05:18:34;154.50;2252.80
56436;DHT22;42335;44.872;20.658;2022-12-31T05:21:00;154.50;2252.80
56436;DHT22;42335;44.872;20.658;2022-12-31T05:23:25;154.50;2252.80
56436;DHT22;42335;44.872;20.658;2022-12-31T05:25:51;154.50;2252.80
56436;DHT22;42335;44.872;20.658;2022-12-31T05:28:17;154.50;2252.80
56436;DHT22;42335;44.872;20.658;2022-12-31T05:30:43;179.20;2252.80
56436;DHT22;42335;44.872;20.658;2022-12-31T05:33:09;179.20;2252.80
56436;DHT22;42335;44.872;20.658;2022-12-31T05:35:35;179.20;2252.80
56436;DHT22;42335;44.872;20.658;2022-12-31T05:38:01;179.20;2252.80
56436;DHT22;42335;44.872;20.658;2022-12-31T05:40:27;179.40;2252.80
56436;DHT22;42335;44.872;20.658;2022-12-31T05:42:53;179.30;2252.80
56436;DHT22;42335;44.872;20.658;2022-12-31T05:45:19;179.40;2252.80
56436;DHT22;42335;44.872;20.658;2022-12-31T05:47:45;179.40;2252.80
56436;DHT22;42335;44.872;20.658;2022-12-31T05:50:12;179.80;2252.80
56436;DHT22;42335;44.872;20.658;2022-12-31T05:52:41;179.50;2252.80
56436;DHT22;42335;44.872;20.658;2022-12-31T05:55:07;179.50;2252.80
56436;DHT22;42335;44.872;20.658;2022-12-31T05:57:33;179.60;2252.80
56436;DHT22;42335;44.872;20.658;2022-12-31T05:59:59;179.60;2252.80
56436;DHT22;42335;44.872;20.658;2022-12-31T06:02:24;179.60;2252.80
56436;DHT22;42335;44.872;20.658;2022-12-31T06:04:50;179.50;2252.80
56436;DHT22;42335;44.872;20.658;2022-12-31T06:07:16;179.60;2252.80
56436;DHT22;42335;44.872;20.658;2022-12-31T06:09:41;179.80;2252.80
56436;DHT22;42335;44.872;20.658;2022-12-31T06:12:07;179.90;2252.80
56436;DHT22;42335;44.872;20.658;2022-12-31T06:14:33;180.10;2252.80
56436;DHT22;42335;44.872;20.658;2022-12-31T06:46:15;205.10;2252.80
56436;DHT22;42335;44.872;20.658;2022-12-31T06:48:42;204.80;2252.80
56436;DHT22;42335;44.872;20.658;2022-12-31T06:51:17;180.10;2252.80
56436;DHT22;42335;44.872;20.658;2022-12-31T06:53:46;180.10;2252.80
56436;DHT22;42335;44.872;20.658;2022-12-31T06:56:25;180.00;2252.80
56436;DHT22;42335;44.872;20.658;2022-12-31T06:58:53;180.00;2252.80
56436;DHT22;42335;44.872;20.658;2022-12-31T07:06:42;180.10;2252.80
56436;DHT22;42335;44.872;20.658;2022-12-31T07:09:31;180.10;2252.80
56436;DHT22;42335;44.872;20.658;2022-12-31T07:12:10;180.10;2252.80
56436;DHT22;42335;44.872;20.658;2022-12-31T07:14:58;180.10;2252.80
56436;DHT22;42335;44.872;20.658;2022-12-31T07:20:07;205.00;2252.80
56436;DHT22;42335;44.872;20.658;2022-12-31T07:22:34;205.00;2252.80
56436;DHT22;42335;44.872;20.658;2022-12-31T07:25:00;205.20;2252.80
56436;DHT22;42335;44.872;20.658;2022-12-31T07:30:19;230.70;2252.80
56436;DHT22;42335;44.872;20.658;2022-12-31T07:35:57;231.30;2252.80
56436;DHT22;42335;44.872;20.658;2022-12-31T07:38:52;256.60;2252.80
56436;DHT22;42335;44.872;20.658;2022-12-31T07:46:59;307.40;2304.00
56436;DHT22;42335;44.872;20.658;2022-12-31T07:56:46;308.10;2304.00
56436;DHT22;42335;44.872;20.658;2022-12-31T09:19:50;282.30;2278.40
56436;DHT22;42335;44.872;20.658;2022-12-31T09:22:16;282.20;2278.40
56436;DHT22;42335;44.872;20.658;2022-12-31T09:24:42;282.20;2278.40
56436;DHT22;42335;44.872;20.658;2022-12-31T09:27:31;282.20;2278.40
56436;DHT22;42335;44.872;20.658;2022-12-31T09:30:13;282.30;2278.40
56436;DHT22;42335;44.872;20.658;2022-12-31T09:35:54;307.30;2304.00
56436;DHT22;42335;44.872;20.658;2022-12-31T09:38:53;307.50;2304.00
56436;DHT22;42335;44.872;20.658;2022-12-31T10:15:25;512.60;1996.80
56436;DHT22;42335;44.872;20.658;2022-12-31T10:35:21;743.30;1024.00
56436;DHT22;42335;44.872;20.658;2022-12-31T10:46:27;563.60;1433.60
56436;DHT22;42335;44.872;20.658;2022-12-31T10:49:14;538.00;1510.40
56436;DHT22;42335;44.872;20.658;2022-12-31T11:00:20;486.60;1689.60
56436;DHT22;42335;44.872;20.658;2022-12-31T11:03:04;461.70;1766.40
56436;DHT22;42335;44.872;20.658;2022-12-31T11:08:25;435.90;1920.00
56436;DHT22;42335;44.872;20.658;2022-12-31T11:14:04;435.30;2201.60
56436;DHT22;42335;44.872;20.658;2022-12-31T11:16:54;410.50;2355.20
56436;DHT22;42335;44.872;20.658;2022-12-31T11:19:29;435.40;2355.20
56436;DHT22;42335;44.872;20.658;2022-12-31T11:36:43;717.70;1177.60
56436;DHT22;42335;44.872;20.658;2022-12-31T11:41:49;922.20;844.80
56436;DHT22;42335;44.872;20.658;2022-12-31T11:49:46;1049.70;691.20
56436;DHT22;42335;44.872;20.658;2022-12-31T11:57:35;1101.40;588.80
56436;DHT22;42335;44.872;20.658;2022-12-31T12:00:23;1126.80;588.80
56436;DHT22;42335;44.872;20.658;2022-12-31T12:02:52;1101.70;563.20
56436;DHT22;42335;44.872;20.658;2022-12-31T12:05:21;1101.70;588.80
56436;DHT22;42335;44.872;20.658;2022-12-31T12:07:49;1024.50;640.00
56436;DHT22;42335;44.872;20.658;2022-12-31T12:10:30;921.90;768.00
56436;DHT22;42335;44.872;20.658;2022-12-31T12:12:57;845.00;896.00
56436;DHT22;42335;44.872;20.658;2022-12-31T12:15:30;768.70;947.20
56436;DHT22;42335;44.872;20.658;2022-12-31T12:17:59;742.50;1049.60
56436;DHT22;42335;44.872;20.658;2022-12-31T12:20:39;691.70;1100.80
56436;DHT22;42335;44.872;20.658;2022-12-31T12:25:58;640.10;1228.80
56436;DHT22;42335;44.872;20.658;2022-12-31T12:28:26;589.40;1331.20
56436;DHT22;42335;44.872;20.658;2022-12-31T12:31:03;588.90;1382.40
56436;DHT22;42335;44.872;20.658;2022-12-31T12:33:40;564.10;1382.40
56436;DHT22;42335;44.872;20.658;2022-12-31T12:36:11;563.90;1408.00
56436;DHT22;42335;44.872;20.658;2022-12-31T12:38:37;563.50;1433.60
56436;DHT22;42335;44.872;20.658;2022-12-31T12:41:06;538.10;1484.80
56436;DHT22;42335;44.872;20.658;2022-12-31T12:43:33;538.00;1510.40
56436;DHT22;42335;44.872;20.658;2022-12-31T12:48:42;512.60;1536.00
56436;DHT22;42335;44.872;20.658;2022-12-31T13:05:23;486.70;1689.60
56436;DHT22;42335;44.872;20.658;2022-12-31T13:08:34;486.50;1740.80
56436;DHT22;42335;44.872;20.658;2022-12-31T13:19:10;461.60;1817.60
56436;DHT22;42335;44.872;20.658;2022-12-31T13:29:52;460.90;2150.40
56436;DHT22;42335;44.872;20.658;2022-12-31T13:32:22;460.80;2304.00
56436;DHT22;42335;44.872;20.658;2022-12-31T13:34:55;436.10;2355.20
56436;DHT22;42335;44.872;20.658;2022-12-31T13:37:36;435.90;2355.20
56436;DHT22;42335;44.872;20.658;2022-12-31T13:40:17;435.70;2355.20
56436;DHT22;42335;44.872;20.658;2022-12-31T13:42:59;435.60;2355.20
56436;DHT22;42335;44.872;20.658;2022-12-31T13:45:31;435.40;2355.20
56436;DHT22;42335;44.872;20.658;2022-12-31T13:48:03;435.30;2355.20
56436;DHT22;42335;44.872;20.658;2022-12-31T13:50:38;435.20;2355.20
56436;DHT22;42335;44.872;20.658;2022-12-31T13:53:26;410.50;2355.20
56436;DHT22;42335;44.872;20.658;2022-12-31T13:55:58;410.40;2355.20
56436;DHT22;42335;44.872;20.658;2022-12-31T14:03:48;410.30;2355.20
56436;DHT22;42335;44.872;20.658;2022-12-31T14:09:02;410.00;2355.20
56436;DHT22;42335;44.872;20.658;2022-12-31T14:14:39;409.80;2355.20
56436;DHT22;42335;44.872;20.658;2022-12-31T14:19:58;409.80;2355.20
56436;DHT22;42335;44.872;20.658;2022-12-31T14:22:34;409.60;2355.20
56436;DHT22;42335;44.872;20.658;2022-12-31T14:25:07;409.60;2355.20
56436;DHT22;42335;44.872;20.658;2022-12-31T14:27:39;384.90;2329.60
56436;DHT22;42335;44.872;20.658;2022-12-31T14:30:12;384.80;2329.60
56436;DHT22;42335;44.872;20.658;2022-12-31T14:51:34;384.30;2329.60
56436;DHT22;42335;44.872;20.658;2022-12-31T14:54:00;384.30;2329.60
56436;DHT22;42335;44.872;20.658;2022-12-31T14:56:28;384.10;2329.60
56436;DHT22;42335;44.872;20.658;2022-12-31T14:59:00;384.00;2329.60
56436;DHT22;42335;44.872;20.658;2022-12-31T15:01:26;384.00;2329.60
56436;DHT22;42335;44.872;20.658;2022-12-31T15:03:54;359.30;2329.60
56436;DHT22;42335;44.872;20.658;2022-12-31T15:06:34;359.20;2329.60
56436;DHT22;42335;44.872;20.658;2022-12-31T15:12:01;359.00;2329.60
56436;DHT22;42335;44.872;20.658;2022-12-31T15:17:52;359.00;2329.60
56436;DHT22;42335;44.872;20.658;2022-12-31T15:20:52;358.90;2329.60
56436;DHT22;42335;44.872;20.658;2022-12-31T15:23:33;358.80;2329.60
56436;DHT22;42335;44.872;20.658;2022-12-31T15:26:00;358.70;2329.60
56436;DHT22;42335;44.872;20.658;2022-12-31T15:28:33;358.60;2329.60
56436;DHT22;42335;44.872;20.658;2022-12-31T15:31:25;358.60;2329.60
56436;DHT22;42335;44.872;20.658;2022-12-31T15:36:29;358.50;2329.60
56436;DHT22;42335;44.872;20.658;2022-12-31T15:41:44;358.40;2329.60
56436;DHT22;42335;44.872;20.658;2022-12-31T15:44:24;333.70;2329.60
56436;DHT22;42335;44.872;20.658;2022-12-31T15:47:08;358.40;2329.60
56436;DHT22;42335;44.872;20.658;2022-12-31T15:49:39;333.70;2329.60
56436;DHT22;42335;44.872;20.658;2022-12-31T15:52:12;333.70;2329.60
56436;DHT22;42335;44.872;20.658;2022-12-31T15:54:47;333.60;2329.60
56436;DHT22;42335;44.872;20.658;2022-12-31T15:57:19;333.60;2329.60
56436;DHT22;42335;44.872;20.658;2022-12-31T15:59:47;333.50;2329.60
56436;DHT22;42335;44.872;20.658;2022-12-31T16:02:20;333.60;2329.60
56436;DHT22;42335;44.872;20.658;2022-12-31T16:04:48;333.50;2329.60
56436;DHT22;42335;44.872;20.658;2022-12-31T16:07:14;333.50;2329.60
56436;DHT22;42335;44.872;20.658;2022-12-31T16:09:41;333.40;2329.60
56436;DHT22;42335;44.872;20.658;2022-12-31T16:12:14;333.40;2329.60
56436;DHT22;42335;44.872;20.658;2022-12-31T16:14:43;333.40;2329.60
56436;DHT22;42335;44.872;20.658;2022-12-31T16:17:31;333.40;2329.60
56436;DHT22;42335;44.872;20.658;2022-12-31T16:19:59;333.30;2329.60
56436;DHT22;42335;44.872;20.658;2022-12-31T16:24:58;333.30;2329.60
56436;DHT22;42335;44.872;20.658;2022-12-31T16:27:27;333.30;2329.60
56436;DHT22;42335;44.872;20.658;2022-12-31T16:30:04;333.30;2329.60
56436;DHT22;42335;44.872;20.658;2022-12-31T16:32:37;333.20;2329.60
56436;DHT22;42335;44.872;20.658;2022-12-31T16:35:26;333.10;2329.60
56436;DHT22;42335;44.872;20.658;2022-12-31T16:38:10;332.90;2329.60
56436;DHT22;42335;44.872;20.658;2022-12-31T16:40:37;332.90;2329.60
56436;DHT22;42335;44.872;20.658;2022-12-31T16:43:03;332.90;2329.60
56436;DHT22;42335;44.872;20.658;2022-12-31T16:45:32;332.90;2329.60
56436;DHT22;42335;44.872;20.658;2022-12-31T16:48:14;332.90;2329.60
56436;DHT22;42335;44.872;20.658;2022-12-31T16:50:48;332.80;2329.60
56436;DHT22;42335;44.872;20.658;2022-12-31T16:53:17;332.80;2329.60
56436;DHT22;42335;44.872;20.658;2022-12-31T16:56:09;332.90;2329.60
56436;DHT22;42335;44.872;20.658;2022-12-31T16:58:42;332.80;2329.60
56436;DHT22;42335;44.872;20.658;2022-12-31T17:01:27;332.80;2329.60
56436;DHT22;42335;44.872;20.658;2022-12-31T17:04:04;332.80;2329.60
56436;DHT22;42335;44.872;20.658;2022-12-31T17:06:31;332.90;2329.60
56436;DHT22;42335;44.872;20.658;2022-12-31T17:09:17;332.80;2329.60
56436;DHT22;42335;44.872;20.658;2022-12-31T17:12:24;332.90;2329.60
56436;DHT22;42335;44.872;20.658;2022-12-31T17:14:50;332.80;2329.60
56436;DHT22;42335;44.872;20.658;2022-12-31T17:17:22;332.90;2329.60
56436;DHT22;42335;44.872;20.658;2022-12-31T17:19:55;332.90;2329.60
56436;DHT22;42335;44.872;20.658;2022-12-31T17:22:29;332.80;2329.60
56436;DHT22;42335;44.872;20.658;2022-12-31T17:27:31;308.10;2304.00
56436;DHT22;42335;44.872;20.658;2022-12-31T17:32:45;307.90;2304.00
56436;DHT22;42335;44.872;20.658;2022-12-31T17:37:53;307.90;2304.00
56436;DHT22;42335;44.872;20.658;2022-12-31T17:40:35;307.90;2304.00
56436;DHT22;42335;44.872;20.658;2022-12-31T17:43:02;308.00;2304.00
56436;DHT22;42335;44.872;20.658;2022-12-31T17:45:27;308.00;2304.00
56436;DHT22;42335;44.872;20.658;2022-12-31T17:47:56;308.00;2304.00
56436;DHT22;42335;44.872;20.658;2022-12-31T17:50:26;307.90;2304.00
56436;DHT22;42335;44.872;20.658;2022-12-31T17:53:16;307.90;2304.00
56436;DHT22;42335;44.872;20.658;2022-12-31T17:55:41;307.80;2304.00
56436;DHT22;42335;44.872;20.658;2022-12-31T18:00:52;307.70;2304.00
56436;DHT22;42335;44.872;20.658;2022-12-31T18:03:18;307.70;2304.00
56436;DHT22;42335;44.872;20.658;2022-12-31T18:05:44;307.60;2304.00
56436;DHT22;42335;44.872;20.658;2022-12-31T18:08:10;307.60;2304.00
56436;DHT22;42335;44.872;20.658;2022-12-31T18:10:37;307.50;2304.00
56436;DHT22;42335;44.872;20.658;2022-12-31T18:13:05;307.40;2304.00
56436;DHT22;42335;44.872;20.658;2022-12-31T18:15:31;307.20;2304.00
56436;DHT22;42335;44.872;20.658;2022-12-31T18:17:57;307.20;2304.00
56436;DHT22;42335;44.872;20.658;2022-12-31T18:20:24;307.20;2304.00
56436;DHT22;42335;44.872;20.658;2022-12-31T18:22:51;282.50;2278.40
56436;DHT22;42335;44.872;20.658;2022-12-31T18:25:22;282.50;2278.40
56436;DHT22;42335;44.872;20.658;2022-12-31T18:27:48;282.50;2278.40
56436;DHT22;42335;44.872;20.658;2022-12-31T18:30:17;282.40;2278.40
56436;DHT22;42335;44.872;20.658;2022-12-31T18:32:44;282.20;2278.40
56436;DHT22;42335;44.872;20.658;2022-12-31T18:35:16;282.20;2278.40
56436;DHT22;42335;44.872;20.658;2022-12-31T18:37:43;282.10;2278.40
56436;DHT22;42335;44.872;20.658;2022-12-31T18:40:11;282.00;2278.40
56436;DHT22;42335;44.872;20.658;2022-12-31T18:42:37;281.90;2278.40
56436;DHT22;42335;44.872;20.658;2022-12-31T18:45:12;281.90;2278.40
56436;DHT22;42335;44.872;20.658;2022-12-31T18:47:39;282.00;2278.40
56436;DHT22;42335;44.872;20.658;2022-12-31T18:50:06;282.00;2278.40
56436;DHT22;42335;44.872;20.658;2022-12-31T18:52:31;282.00;2278.40
56436;DHT22;42335;44.872;20.658;2022-12-31T18:54:57;281.90;2278.40
56436;DHT22;42335;44.872;20.658;2022-12-31T18:57:23;281.90;2278.40
56436;DHT22;42335;44.872;20.658;2022-12-31T18:59:48;281.80;2278.40
56436;DHT22;42335;44.872;20.658;2022-12-31T19:02:17;281.80;2278.40
56436;DHT22;42335;44.872;20.658;2022-12-31T19:04:44;281.70;2278.40
56436;DHT22;42335;44.872;20.658;2022-12-31T19:07:09;281.70;2278.40
56436;DHT22;42335;44.872;20.658;2022-12-31T19:09:35;281.70;2278.40
56436;DHT22;42335;44.872;20.658;2022-12-31T19:12:01;281.70;2278.40
56436;DHT22;42335;44.872;20.658;2022-12-31T19:14:27;256.90;2252.80
56436;DHT22;42335;44.872;20.658;2022-12-31T19:16:53;256.90;2252.80
56436;DHT22;42335;44.872;20.658;2022-12-31T19:19:20;256.90;2252.80
56436;DHT22;42335;44.872;20.658;2022-12-31T19:21:46;256.70;2252.80
56436;DHT22;42335;44.872;20.658;2022-12-31T19:24:18;256.50;2252.80
56436;DHT22;42335;44.872;20.658;2022-12-31T19:26:44;256.40;2252.80
56436;DHT22;42335;44.872;20.658;2022-12-31T19:31:43;256.30;2252.80
56436;DHT22;42335;44.872;20.658;2022-12-31T19:34:09;256.30;2252.80
56436;DHT22;42335;44.872;20.658;2022-12-31T19:36:35;256.30;2252.80
56436;DHT22;42335;44.872;20.658;2022-12-31T19:39:03;256.40;2252.80
56436;DHT22;42335;44.872;20.658;2022-12-31T19:48:50;256.70;2252.80
56436;DHT22;42335;44.872;20.658;2022-12-31T19:51:20;256.40;2252.80
56436;DHT22;42335;44.872;20.658;2022-12-31T19:58:40;256.70;2252.80
56436;DHT22;42335;44.872;20.658;2022-12-31T20:01:06;256.30;2252.80
56436;DHT22;42335;44.872;20.658;2022-12-31T20:03:33;256.20;2252.80
56436;DHT22;42335;44.872;20.658;2022-12-31T20:06:09;256.20;2252.80
56436;DHT22;42335;44.872;20.658;2022-12-31T20:08:36;256.20;2252.80
56436;DHT22;42335;44.872;20.658;2022-12-31T20:11:10;256.10;2252.80
56436;DHT22;42335;44.872;20.658;2022-12-31T20:13:37;256.10;2252.80
56436;DHT22;42335;44.872;20.658;2022-12-31T20:16:06;256.10;2252.80
56436;DHT22;42335;44.872;20.658;2022-12-31T20:18:32;256.10;2252.80
56436;DHT22;42335;44.872;20.658;2022-12-31T20:20:58;256.10;2252.80
56436;DHT22;42335;44.872;20.658;2022-12-31T20:23:27;231.30;2252.80
56436;DHT22;42335;44.872;20.658;2022-12-31T20:25:59;231.30;2252.80
56436;DHT22;42335;44.872;20.658;2022-12-31T20:28:26;256.00;2252.80
56436;DHT22;42335;44.872;20.658;2022-12-31T20:30:52;256.00;2252.80
56436;DHT22;42335;44.872;20.658;2022-12-31T20:33:17;256.00;2252.80
56436;DHT22;42335;44.872;20.658;2022-12-31T20:35:43;231.30;2252.80
56436;DHT22;42335;44.872;20.658;2022-12-31T20:38:10;256.00;2252.80
56436;DHT22;42335;44.872;20.658;2022-12-31T20:40:36;256.00;2252.80
56436;DHT22;42335;44.872;20.658;2022-12-31T20:43:01;256.00;2252.80
56436;DHT22;42335;44.872;20.658;2022-12-31T20:45:27;231.30;2252.80
56436;DHT22;42335;44.872;20.658;2022-12-31T20:47:53;256.00;2252.80
56436;DHT22;42335;44.872;20.658;2022-12-31T20:50:18;231.30;2252.80
56436;DHT22;42335;44.872;20.658;2022-12-31T20:52:45;231.30;2252.80
56436;DHT22;42335;44.872;20.658;2022-12-31T20:55:11;231.30;2252.80
56436;DHT22;42335;44.872;20.658;2022-12-31T20:57:39;231.30;2252.80
56436;DHT22;42335;44.872;20.658;2022-12-31T21:00:05;256.10;2252.80
56436;DHT22;42335;44.872;20.658;2022-12-31T21:05:09;256.20;2252.80
56436;DHT22;42335;44.872;20.658;2022-12-31T21:07:34;231.30;2252.80
56436;DHT22;42335;44.872;20.658;2022-12-31T21:32:12;256.00;2252.80
56436;DHT22;42335;44.872;20.658;2022-12-31T21:34:38;231.10;2252.80
56436;DHT22;42335;44.872;20.658;2022-12-31T21:37:03;231.10;2252.80
56436;DHT22;42335;44.872;20.658;2022-12-31T21:39:29;231.00;2252.80
56436;DHT22;42335;44.872;20.658;2022-12-31T21:41:55;230.90;2252.80
56436;DHT22;42335;44.872;20.658;2022-12-31T21:44:23;230.90;2252.80
56436;DHT22;42335;44.872;20.658;2022-12-31T21:46:58;230.90;2252.80
56436;DHT22;42335;44.872;20.658;2022-12-31T21:49:43;230.90;2252.80
56436;DHT22;42335;44.872;20.658;2022-12-31T21:52:10;230.90;2252.80
56436;DHT22;42335;44.872;20.658;2022-12-31T21:54:56;230.90;2252.80
56436;DHT22;42335;44.872;20.658;2022-12-31T21:57:41;230.90;2252.80
56436;DHT22;42335;44.872;20.658;2022-12-31T22:00:08;230.90;2252.80
56436;DHT22;42335;44.872;20.658;2022-12-31T22:02:53;230.90;2252.80
56436;DHT22;42335;44.872;20.658;2022-12-31T22:05:44;230.90;2252.80
56436;DHT22;42335;44.872;20.658;2022-12-31T22:08:09;230.90;2252.80
56436;DHT22;42335;44.872;20.658;2022-12-31T22:10:35;230.90;2252.80
56436;DHT22;42335;44.872;20.658;2022-12-31T22:13:01;230.90;2252.80
56436;DHT22;42335;44.872;20.658;2022-12-31T22:15:26;230.90;2252.80
56436;DHT22;42335;44.872;20.658;2022-12-31T22:17:52;230.90;2252.80
56436;DHT22;42335;44.872;20.658;2022-12-31T22:20:18;230.90;2252.80
56436;DHT22;42335;44.872;20.658;2022-12-31T22:22:44;230.70;2252.80
56436;DHT22;42335;44.872;20.658;2022-12-31T22:25:09;230.70;2252.80